Time;durP1;ratioP1;P1;durP2;ratioP2;P2;SDS_P1;SDS_P2;PMS_P1;PMS_P2;Temp;Humidity;BMP_temperature;BMP_pressure;BME280_temperature;BME280_humidity;BME280_pressure;Samples;Min_cycle;Max_cycle;Signal;HPM_P1;HPM_P2
2021/12/05 07:00:47;;;;;;;25.42;2.45;;;6.70;99.90;;;;;;5815404;23;20051;-86
2021/12/05 07:03:15;;;;;;;21.30;2.28;;;6.70;99.90;;;;;;4922745;29;20048;-85
2021/12/05 07:08:15;;;;;;;18.25;2.50;;;6.70;99.90;;;;;;4940983;29;20051;-84
2021/12/05 07:19:39;;;;;;;17.30;3.67;;;6.90;99.90;;;;;;4851551;29;20138;-84
2021/12/05 07:25:10;;;;;;;15.68;3.45;;;7.00;99.90;;;;;;4849808;29;20133;-85
2021/12/05 07:43:52;;;;;;;19.10;2.30;;;7.10;99.90;;;;;;4869217;29;20056;-84
2021/12/05 07:46:19;;;;;;;28.90;2.78;;;7.10;99.90;;;;;;4949600;29;20047;-84
2021/12/05 07:48:49;;;;;;;18.15;2.63;;;7.10;99.90;;;;;;4942738;29;20052;-84
2021/12/05 07:53:57;;;;;;;16.67;3.25;;;7.10;99.90;;;;;;4937036;29;20516;-82
2021/12/05 08:16:13;;;;;;;14.20;1.90;;;7.30;99.90;;;;;;4962741;28;20055;-81
2021/12/05 08:18:41;;;;;;;12.90;1.90;;;7.30;99.90;;;;;;4951439;28;20067;-84
2021/12/05 08:21:10;;;;;;;17.15;1.90;;;7.30;99.90;;;;;;4964307;28;20057;-83
2021/12/05 08:23:50;;;;;;;20.20;2.58;;;7.30;99.90;;;;;;4938945;28;20042;-86
2021/12/05 08:26:22;;;;;;;13.77;2.40;;;7.10;99.90;;;;;;4959299;28;20748;-82
2021/12/05 08:29:04;;;;;;;9.90;2.00;;;7.10;99.90;;;;;;4961597;28;20062;-84
2021/12/05 09:40:00;;;;;;;14.00;1.90;;;7.50;99.90;;;;;;4955416;28;20427;-83
2021/12/05 09:51:44;;;;;;;13.70;1.77;;;7.30;99.90;;;;;;4935419;28;20742;-84
2021/12/05 10:38:55;;;;;;;;;;;6.30;99.90;;;;;;4890204;29;20041;-82
2021/12/05 10:44:07;;;;;;;8.75;2.38;;;6.40;99.90;;;;;;4882927;29;20056;-80
2021/12/05 10:46:39;;;;;;;8.18;1.23;;;6.40;99.90;;;;;;4880608;29;20049;-84
2021/12/05 10:49:13;;;;;;;10.73;1.52;;;6.50;99.90;;;;;;4884355;29;20056;-81
2021/12/05 10:51:48;;;;;;;12.85;2.30;;;6.60;99.90;;;;;;4872916;29;20048;-84
2021/12/05 10:54:20;;;;;;;19.27;2.90;;;6.60;99.90;;;;;;4858666;29;20429;-83
2021/12/05 10:56:55;;;;;;;11.77;3.35;;;6.60;99.90;;;;;;4879466;29;20063;-85
2021/12/05 10:59:38;;;;;;;15.93;3.13;;;6.50;99.90;;;;;;4882693;29;20605;-84
2021/12/05 11:02:08;;;;;;;16.77;2.53;;;6.50;99.90;;;;;;4892518;29;20055;-82
2021/12/05 11:04:41;;;;;;;11.95;2.25;;;6.50;99.90;;;;;;4891095;29;20080;-84
2021/12/05 11:07:17;;;;;;;19.17;5.57;;;6.60;99.90;;;;;;4877256;29;20049;-84
2021/12/05 11:09:47;;;;;;;25.13;3.75;;;6.70;99.90;;;;;;4921303;28;20534;-83
2021/12/05 11:12:17;;;;;;;18.65;3.88;;;6.80;99.90;;;;;;4938082;28;20047;-85
2021/12/05 11:14:49;;;;;;;19.05;3.35;;;7.00;99.90;;;;;;4939089;28;20058;-82
2021/12/05 11:17:20;;;;;;;27.85;2.78;;;7.10;99.90;;;;;;4956596;28;20055;-83
2021/12/05 11:19:52;;;;;;;30.27;4.93;;;7.20;99.90;;;;;;4959307;28;20051;-82
2021/12/05 11:22:23;;;;;;;18.05;3.22;;;7.40;99.90;;;;;;4957978;28;20047;-83
2021/12/05 11:25:27;;;;;;;20.50;7.00;;;7.50;99.90;;;;;;4962664;28;20066;-85
2021/12/05 11:28:08;;;;;;;16.05;2.38;;;7.60;99.90;;;;;;4952644;28;20047;-85
2021/12/05 11:30:41;;;;;;;14.05;2.22;;;7.60;99.90;;;;;;4964662;28;20043;-85
2021/12/05 11:33:23;;;;;;;12.52;3.72;;;7.60;99.90;;;;;;4951190;28;20046;-85
2021/12/05 11:35:59;;;;;;;11.73;2.28;;;7.60;99.90;;;;;;4953561;28;20066;-84
2021/12/05 11:38:33;;;;;;;12.65;2.38;;;7.60;99.90;;;;;;4963628;28;20097;-83
2021/12/05 11:41:14;;;;;;;11.25;2.70;;;7.70;99.90;;;;;;4956518;28;20126;-83
2021/12/05 11:43:45;;;;;;;19.83;3.53;;;7.80;99.90;;;;;;4944453;28;20583;-80
2021/12/05 11:46:20;;;;;;;14.60;3.63;;;7.90;99.90;;;;;;4951928;28;20126;-81
2021/12/05 11:48:53;;;;;;;15.38;3.45;;;8.00;99.90;;;;;;4959909;28;20043;-81
2021/12/05 11:51:32;;;;;;;19.73;3.03;;;8.00;99.90;;;;;;4959996;28;20122;-82
2021/12/05 11:54:01;;;;;;;;;;;8.10;99.90;;;;;;4960046;28;20051;-84
2021/12/05 11:56:31;;;;;;;19.30;2.72;;;8.20;99.90;;;;;;4961044;28;19922;-81
2021/12/05 11:59:13;;;;;;;14.95;3.50;;;8.20;99.90;;;;;;4954281;28;20051;-83
2021/12/05 12:01:47;;;;;;;18.05;2.28;;;8.30;99.90;;;;;;4957106;28;20051;-82
2021/12/05 12:04:19;;;;;;;21.90;2.72;;;8.30;99.90;;;;;;4958504;28;20770;-83
2021/12/05 12:07:04;;;;;;;15.45;2.35;;;8.40;99.90;;;;;;4947608;28;20058;-82
2021/12/05 12:09:31;;;;;;;16.85;2.53;;;8.40;99.90;;;;;;4958899;28;20051;-81
2021/12/05 12:12:00;;;;;;;13.32;2.45;;;8.50;99.90;;;;;;4961501;28;20055;-82
2021/12/05 12:14:28;;;;;;;11.68;2.30;;;8.50;99.90;;;;;;4943637;28;20050;-81
2021/12/05 12:16:58;;;;;;;11.48;2.38;;;8.60;99.90;;;;;;4962620;28;20046;-82
2021/12/05 12:19:26;;;;;;;9.90;1.60;;;8.60;99.90;;;;;;4962952;28;20113;-82
2021/12/05 12:21:57;;;;;;;17.05;3.22;;;8.70;99.90;;;;;;4958722;28;20054;-80
2021/12/05 12:24:25;;;;;;;14.90;1.83;;;8.70;99.90;;;;;;4956671;28;20051;-82
2021/12/05 12:26:53;;;;;;;15.75;3.50;;;8.80;99.90;;;;;;4959067;28;20051;-81
2021/12/05 12:29:21;;;;;;;20.97;3.07;;;8.90;99.90;;;;;;4957217;28;20062;-80
2021/12/05 12:31:50;;;;;;;16.73;2.60;;;8.90;99.90;;;;;;4962132;28;20058;-81
2021/12/05 12:34:21;;;;;;;16.52;2.90;;;9.00;99.90;;;;;;4939526;28;20168;-80
2021/12/05 12:36:50;;;;;;;12.75;2.22;;;9.00;99.90;;;;;;4961471;28;20039;-80
2021/12/05 12:39:17;;;;;;;;;;;9.00;99.90;;;;;;4962539;28;20046;-82
2021/12/05 12:42:13;;;;;;;19.70;2.30;;;9.00;99.90;;;;;;4964314;28;19980;-81
2021/12/05 12:44:57;;;;;;;16.92;2.72;;;9.00;99.90;;;;;;4959852;28;20145;-83
2021/12/05 12:47:51;;;;;;;22.13;2.55;;;9.00;99.90;;;;;;4960454;28;20057;-80
2021/12/05 12:50:34;;;;;;;19.17;3.40;;;9.10;99.90;;;;;;4954525;28;20047;-82
2021/12/05 12:53:09;;;;;;;20.38;2.45;;;9.10;99.90;;;;;;4947326;28;20088;-81
2021/12/05 12:55:40;;;;;;;16.00;2.40;;;9.20;99.90;;;;;;4957489;28;20047;-81
2021/12/05 12:58:10;;;;;;;19.42;2.85;;;9.20;99.90;;;;;;4960617;28;20047;-81
2021/12/05 13:00:43;;;;;;;18.55;2.92;;;9.30;99.90;;;;;;4963722;28;20054;-81
2021/12/05 13:03:28;;;;;;;21.17;2.67;;;9.30;99.90;;;;;;4963559;28;20051;-82
2021/12/05 13:11:55;;;;;;;14.50;2.63;;;9.40;99.90;;;;;;4954103;28;20051;-83
2021/12/05 13:14:23;;;;;;;23.00;3.05;;;9.40;99.90;;;;;;4957143;28;20093;-83
2021/12/05 13:16:50;;;;;;;21.15;2.88;;;9.50;99.90;;;;;;4963395;28;20082;-83
2021/12/05 13:19:22;;;;;;;10.93;2.20;;;9.50;99.90;;;;;;4959762;28;20594;-82
2021/12/05 13:22:02;;;;;;;12.18;1.50;;;9.50;99.90;;;;;;4963540;28;20055;-82
2021/12/05 13:24:42;;;;;;;15.27;1.95;;;9.50;99.90;;;;;;4962481;28;20043;-82
2021/12/05 13:27:29;;;;;;;15.88;1.85;;;9.50;99.90;;;;;;4959191;28;20054;-81
2021/12/05 13:29:57;;;;;;;9.88;1.40;;;9.50;99.90;;;;;;4965638;28;21409;-81
2021/12/05 13:32:29;;;;;;;11.23;1.50;;;9.40;99.90;;;;;;4958005;28;20059;-83
2021/12/05 13:35:07;;;;;;;8.43;1.25;;;9.50;99.90;;;;;;4960205;28;20496;-83
2021/12/05 13:37:54;;;;;;;17.30;1.77;;;9.40;99.90;;;;;;4963257;28;20043;-82
2021/12/05 13:40:26;;;;;;;12.25;1.70;;;9.40;99.90;;;;;;4957016;28;20294;-83
2021/12/05 13:42:56;;;;;;;16.65;2.47;;;9.40;99.90;;;;;;4944141;28;20054;-82
2021/12/05 13:45:26;;;;;;;13.98;1.92;;;9.40;99.90;;;;;;4937402;28;20582;-80
2021/12/05 13:47:53;;;;;;;17.85;2.53;;;9.40;99.90;;;;;;4960384;28;20117;-81
2021/12/05 13:50:23;;;;;;;10.52;2.22;;;9.40;99.90;;;;;;4959069;28;20042;-83
2021/12/05 13:53:02;;;;;;;19.20;2.10;;;9.40;99.90;;;;;;4959971;28;20529;-81
2021/12/05 13:55:37;;;;;;;;;;;9.50;99.90;;;;;;4959811;28;20427;-83
2021/12/05 13:58:25;;;;;;;14.88;2.20;;;9.50;99.90;;;;;;4958086;28;20379;-81
2021/12/05 14:00:55;;;;;;;19.85;2.60;;;9.40;99.90;;;;;;4962530;28;20073;-82
2021/12/05 14:04:08;;;;;;;16.88;2.78;;;9.40;99.90;;;;;;4959066;28;20074;-81
2021/12/05 14:06:43;;;;;;;17.00;3.08;;;9.40;99.90;;;;;;4882029;29;20071;-81
2021/12/05 14:09:20;;;;;;;16.48;2.65;;;9.40;99.90;;;;;;4882883;29;20060;-83
2021/12/05 14:11:55;;;;;;;10.43;2.97;;;9.40;99.90;;;;;;4882266;29;20056;-80
2021/12/05 14:14:27;;;;;;;21.00;3.13;;;9.40;99.90;;;;;;4882030;29;20053;-80
2021/12/05 14:16:58;;;;;;;18.23;2.78;;;9.40;99.90;;;;;;4856860;29;20064;-85
2021/12/05 14:19:30;;;;;;;15.25;2.00;;;9.50;99.90;;;;;;4879030;29;20060;-82
2021/12/05 14:22:00;;;;;;;19.13;3.67;;;9.50;99.90;;;;;;4861262;29;20053;-82
2021/12/05 14:24:34;;;;;;;12.45;1.95;;;9.50;99.90;;;;;;4880627;29;20048;-83
2021/12/05 14:27:06;;;;;;;17.85;2.13;;;9.50;99.90;;;;;;4881375;29;20052;-83
2021/12/05 14:29:40;;;;;;;16.65;3.97;;;9.40;99.90;;;;;;4884261;29;20044;-83
2021/12/05 14:32:33;;;;;;;15.85;3.00;;;9.50;99.90;;;;;;4872822;29;20104;-82
2021/12/05 14:35:14;;;;;;;17.52;2.80;;;9.50;99.90;;;;;;4879607;29;20049;-82
2021/12/05 14:37:44;;;;;;;14.68;2.40;;;9.40;99.90;;;;;;4873068;29;20053;-82
2021/12/05 14:40:18;;;;;;;14.00;2.47;;;9.50;99.90;;;;;;4888878;29;20052;-81
2021/12/05 14:42:53;;;;;;;13.48;1.95;;;9.50;99.90;;;;;;4935038;28;20054;-82
2021/12/05 14:45:24;;;;;;;13.02;2.42;;;9.40;99.90;;;;;;4960962;28;20519;-84
2021/12/05 14:47:54;;;;;;;15.35;2.60;;;9.40;99.90;;;;;;4957765;28;20051;-85
2021/12/05 14:50:35;;;;;;;22.90;2.70;;;9.30;99.90;;;;;;4948119;28;20047;-83
2021/12/05 14:53:06;;;;;;;14.65;2.60;;;9.30;99.90;;;;;;4961248;28;20411;-85
2021/12/05 14:55:35;;;;;;;12.27;2.95;;;9.20;99.90;;;;;;4936670;28;20122;-86
2021/12/05 14:58:10;;;;;;;14.32;1.85;;;9.20;99.90;;;;;;4965216;28;20055;-82
2021/12/05 15:00:46;;;;;;;14.30;2.30;;;9.20;99.90;;;;;;4966735;28;20062;-85
2021/12/05 15:03:18;;;;;;;13.90;2.88;;;9.20;99.90;;;;;;4957351;28;20051;-82
2021/12/05 15:05:52;;;;;;;17.58;2.65;;;9.10;99.90;;;;;;4957833;28;20050;-83
2021/12/05 15:08:22;;;;;;;12.38;2.47;;;9.10;99.90;;;;;;4965002;28;20035;-80
2021/12/05 15:10:55;;;;;;;13.80;2.53;;;9.10;99.90;;;;;;4967977;28;20054;-82
2021/12/05 15:13:22;;;;;;;11.82;3.10;;;9.10;99.90;;;;;;4939695;28;20073;-82
2021/12/05 15:15:49;;;;;;;15.43;1.92;;;9.00;99.90;;;;;;4936978;28;20063;-83
2021/12/05 15:18:24;;;;;;;13.90;2.33;;;9.00;99.90;;;;;;4946202;28;20073;-81
2021/12/05 15:20:51;;;;;;;15.50;2.15;;;9.00;99.90;;;;;;4955334;28;20050;-83
2021/12/05 15:23:18;;;;;;;17.10;2.25;;;9.00;99.90;;;;;;4952928;28;20912;-82
2021/12/05 15:25:48;;;;;;;14.93;2.97;;;9.00;99.90;;;;;;4937581;28;20055;-83
2021/12/05 15:28:17;;;;;;;18.75;4.53;;;9.00;99.90;;;;;;4959536;28;20085;-82
2021/12/05 15:30:48;;;;;;;13.02;2.28;;;8.90;99.90;;;;;;4957646;28;20043;-82
2021/12/05 15:33:20;;;;;;;14.77;2.45;;;8.90;99.90;;;;;;4959803;28;20102;-83
2021/12/05 15:35:49;;;;;;;17.05;3.00;;;8.90;99.90;;;;;;4962690;28;20051;-82
2021/12/05 15:38:24;;;;;;;15.43;1.88;;;8.90;99.90;;;;;;4963197;28;20142;-83
2021/12/05 15:40:57;;;;;;;18.95;2.22;;;8.90;99.90;;;;;;4947256;28;20047;-82
2021/12/05 15:43:26;;;;;;;17.42;2.70;;;8.90;99.90;;;;;;4942596;28;20508;-80
2021/12/05 15:45:57;;;;;;;19.40;3.35;;;8.80;99.90;;;;;;4946724;28;20511;-83
2021/12/05 15:48:30;;;;;;;14.70;1.98;;;8.80;99.90;;;;;;4962393;28;20065;-82
2021/12/05 15:51:01;;;;;;;18.52;1.85;;;8.80;99.90;;;;;;4958929;28;20051;-83
2021/12/05 15:53:31;;;;;;;9.80;1.83;;;8.70;99.90;;;;;;4944602;28;20048;-82
2021/12/05 15:56:01;;;;;;;17.70;2.28;;;8.70;99.90;;;;;;4961911;28;20055;-82
2021/12/05 15:58:40;;;;;;;16.92;2.53;;;8.70;99.90;;;;;;4965467;28;20046;-82
2021/12/05 16:01:12;;;;;;;20.75;2.83;;;8.70;99.90;;;;;;4952567;28;20063;-81
2021/12/05 16:03:45;;;;;;;13.43;2.00;;;8.70;99.90;;;;;;4949098;29;20134;-83
2021/12/05 16:06:14;;;;;;;17.17;2.05;;;8.60;99.90;;;;;;4940852;29;20051;-84
2021/12/05 16:08:44;;;;;;;14.68;1.63;;;8.60;99.90;;;;;;4930993;29;20066;-84
2021/12/05 16:11:17;;;;;;;16.23;2.10;;;8.60;99.90;;;;;;4924280;29;20139;-85
2021/12/05 16:13:47;;;;;;;19.10;2.78;;;8.60;99.90;;;;;;4932578;29;20058;-82
2021/12/05 16:16:26;;;;;;;13.27;2.55;;;8.60;99.90;;;;;;4943321;29;20084;-81
2021/12/05 16:18:56;;;;;;;22.55;2.47;;;8.50;99.90;;;;;;4932235;29;20079;-83
2021/12/05 16:21:30;;;;;;;12.63;2.78;;;8.50;99.90;;;;;;4944787;29;20138;-82
2021/12/05 16:24:08;;;;;;;18.42;2.50;;;8.50;99.90;;;;;;4942310;29;20052;-84
2021/12/05 16:26:36;;;;;;;16.20;1.90;;;8.40;99.90;;;;;;4941118;29;20421;-83
2021/12/05 16:29:06;;;;;;;12.02;1.92;;;8.40;99.90;;;;;;4947161;29;20106;-82
2021/12/05 16:31:52;;;;;;;10.80;2.20;;;8.40;99.90;;;;;;4934108;29;20107;-83
2021/12/05 16:34:25;;;;;;;14.02;2.78;;;8.30;99.90;;;;;;4943417;29;20050;-82
2021/12/05 16:37:02;;;;;;;13.52;2.35;;;8.30;99.90;;;;;;4948434;29;20123;-83
2021/12/05 16:39:37;;;;;;;21.00;2.95;;;8.30;99.90;;;;;;4951259;28;20046;-83
2021/12/05 16:42:36;;;;;;;25.08;7.43;;;8.20;99.90;;;;;;4930727;29;20059;-83
2021/12/05 16:45:04;;;;;;;16.45;2.20;;;8.20;99.90;;;;;;4928252;29;20065;-83
2021/12/05 16:47:33;;;;;;;16.02;2.60;;;8.20;99.90;;;;;;4941958;29;20048;-83
2021/12/05 16:50:03;;;;;;;21.00;8.32;;;8.20;99.90;;;;;;4942877;29;20055;-83
2021/12/05 16:52:33;;;;;;;23.15;5.97;;;8.20;99.90;;;;;;4950391;29;20051;-82
2021/12/05 16:55:26;;;;;;;18.30;3.38;;;8.20;99.90;;;;;;4941012;29;20055;-81
2021/12/05 16:58:20;;;;;;;18.60;5.82;;;8.20;99.90;;;;;;4946673;29;20048;-80
2021/12/05 17:00:52;;;;;;;19.08;2.95;;;8.10;99.90;;;;;;4950255;28;20050;-82
2021/12/05 17:03:24;;;;;;;14.15;3.17;;;8.10;99.90;;;;;;4948667;28;20047;-81
2021/12/05 17:05:55;;;;;;;14.32;2.28;;;8.10;99.90;;;;;;4937893;29;20556;-80
2021/12/05 17:08:27;;;;;;;19.15;2.15;;;8.10;99.90;;;;;;4959759;28;20048;-83
2021/12/05 17:11:01;;;;;;;12.38;2.40;;;8.10;99.90;;;;;;4954646;28;20572;-80
2021/12/05 17:13:43;;;;;;;16.65;3.03;;;8.10;99.90;;;;;;4963950;28;20062;-81
2021/12/05 17:16:15;;;;;;;16.50;2.17;;;8.00;99.90;;;;;;4958325;28;20110;-83
2021/12/05 17:19:06;;;;;;;15.25;1.95;;;8.00;99.90;;;;;;4961001;28;20051;-82
2021/12/05 17:21:47;;;;;;;19.63;2.70;;;8.00;99.90;;;;;;4957441;28;20058;-81
2021/12/05 17:24:23;;;;;;;16.02;2.10;;;8.00;99.90;;;;;;4960267;28;20043;-81
2021/12/05 17:26:54;;;;;;;16.20;2.67;;;8.00;99.90;;;;;;4968567;28;20046;-81
2021/12/05 17:29:32;;;;;;;23.98;3.42;;;8.00;99.90;;;;;;4940590;28;20083;-82
2021/12/05 17:32:27;;;;;;;20.08;2.55;;;7.90;99.90;;;;;;4936861;28;20055;-80
2021/12/05 17:34:57;;;;;;;13.85;3.10;;;8.00;99.90;;;;;;4960605;28;20054;-81
2021/12/05 17:37:27;;;;;;;14.77;2.20;;;8.00;99.90;;;;;;4951085;28;20050;-82
2021/12/05 17:39:56;;;;;;;11.90;2.50;;;7.90;99.90;;;;;;4956026;28;20091;-79
2021/12/05 17:42:26;;;;;;;20.70;3.05;;;7.90;99.90;;;;;;4965885;28;20055;-81
2021/12/05 17:44:59;;;;;;;11.82;3.17;;;7.90;99.90;;;;;;4967333;28;20121;-79
2021/12/05 17:47:27;;;;;;;11.70;2.00;;;7.90;99.90;;;;;;4961196;28;20118;-79
2021/12/05 17:49:57;;;;;;;10.38;2.30;;;7.90;99.90;;;;;;4963747;28;20436;-78
2021/12/05 17:52:26;;;;;;;18.25;2.17;;;7.90;99.90;;;;;;4961566;28;20106;-79
2021/12/05 17:55:02;;;;;;;16.13;2.95;;;7.90;99.90;;;;;;4960605;28;20117;-78
2021/12/05 17:57:37;;;;;;;14.82;3.03;;;7.90;99.90;;;;;;4958418;28;20074;-79
2021/12/05 18:03:00;;;;;;;16.92;2.92;;;7.90;99.90;;;;;;4956499;28;20087;-79
2021/12/05 18:05:38;;;;;;;17.73;3.78;;;7.80;99.90;;;;;;4961043;28;20102;-80
2021/12/05 18:08:09;;;;;;;19.25;4.80;;;7.80;99.90;;;;;;4957075;28;20570;-80
2021/12/05 18:10:42;;;;;;;17.38;3.53;;;7.80;99.90;;;;;;4954296;28;20058;-81
2021/12/05 18:13:11;;;;;;;12.57;2.50;;;7.80;99.90;;;;;;4950416;28;20511;-80
2021/12/05 18:15:54;;;;;;;16.58;2.17;;;7.80;99.90;;;;;;4961364;28;20659;-82
2021/12/05 18:18:24;;;;;;;23.55;3.70;;;7.80;99.90;;;;;;4955457;28;20096;-79
2021/12/05 18:20:52;;;;;;;20.13;3.53;;;7.70;99.90;;;;;;4957393;28;20063;-82
2021/12/05 18:23:20;;;;;;;15.02;3.72;;;7.70;99.90;;;;;;4957702;28;20046;-79
2021/12/05 18:25:48;;;;;;;17.63;3.10;;;7.70;99.90;;;;;;4941195;28;20480;-79
2021/12/05 18:28:15;;;;;;;12.82;2.55;;;7.70;99.90;;;;;;4955088;28;20069;-81
2021/12/05 18:30:42;;;;;;;16.95;3.40;;;7.70;99.90;;;;;;4953618;28;20047;-80
2021/12/05 18:33:13;;;;;;;17.65;2.97;;;7.70;99.90;;;;;;4936951;28;20111;-78
2021/12/05 18:35:41;;;;;;;20.20;2.70;;;7.70;99.90;;;;;;4960319;28;20047;-79
2021/12/05 18:38:12;;;;;;;17.07;2.60;;;7.60;99.90;;;;;;4953091;28;20487;-79
2021/12/05 18:40:45;;;;;;;18.15;2.28;;;7.70;99.90;;;;;;4958142;28;20810;-79
2021/12/05 18:43:14;;;;;;;11.40;1.92;;;7.60;99.90;;;;;;4940625;28;20109;-80
2021/12/05 18:45:42;;;;;;;9.80;2.03;;;7.60;99.90;;;;;;4948017;28;20055;-81
2021/12/05 18:48:10;;;;;;;17.38;2.22;;;7.60;99.90;;;;;;4958106;28;20047;-81
2021/12/05 18:50:39;;;;;;;14.40;1.92;;;7.60;99.90;;;;;;4958873;28;20046;-79
2021/12/05 18:53:06;;;;;;;16.02;2.15;;;7.60;99.90;;;;;;4955462;28;20239;-82
2021/12/05 18:55:34;;;;;;;20.83;2.35;;;7.60;99.90;;;;;;4940191;28;20047;-81
2021/12/05 18:58:08;;;;;;;11.02;2.17;;;7.60;99.90;;;;;;4956757;28;20069;-81
2021/12/05 19:04:19;;;;;;;15.75;2.50;;;7.60;99.90;;;;;;4953795;28;20043;-80
2021/12/05 19:06:18;;;;;;;13.25;2.03;;;7.60;99.90;;;;;;4945850;29;20046;-82
2021/12/05 19:11:53;;;;;;;29.60;11.85;;;7.50;99.90;;;;;;4938618;29;20054;-80
2021/12/05 19:14:20;;;;;;;19.42;7.60;;;7.60;99.90;;;;;;4919612;29;20587;-78
2021/12/05 19:16:50;;;;;;;11.70;2.10;;;7.50;99.90;;;;;;4939512;29;20047;-82
2021/12/05 19:19:19;;;;;;;16.00;2.17;;;7.50;99.90;;;;;;4937298;29;20539;-82
2021/12/05 19:21:49;;;;;;;11.50;1.85;;;7.50;99.90;;;;;;4921179;29;20058;-81
2021/12/05 19:24:18;;;;;;;13.35;2.58;;;7.50;99.90;;;;;;4937793;29;20386;-82
2021/12/05 19:26:47;;;;;;;13.93;3.08;;;7.60;99.90;;;;;;4924414;29;20398;-79
2021/12/05 19:29:16;;;;;;;11.88;2.38;;;7.50;99.90;;;;;;4937043;28;20055;-81
2021/12/05 19:31:47;;;;;;;13.55;1.73;;;7.50;99.90;;;;;;4940076;29;20047;-80
2021/12/05 19:34:14;;;;;;;13.10;1.95;;;7.50;99.90;;;;;;4928965;29;20102;-82
2021/12/05 19:36:41;;;;;;;15.82;2.95;;;7.50;99.90;;;;;;4943424;29;20043;-82
2021/12/05 19:39:09;;;;;;;11.88;2.05;;;7.50;99.90;;;;;;4941273;29;20055;-81
2021/12/05 19:41:37;;;;;;;12.83;1.87;;;7.60;99.90;;;;;;4942345;29;20099;-82
2021/12/05 19:44:05;;;;;;;18.52;2.85;;;7.60;99.90;;;;;;4915737;29;20778;-81
2021/12/05 19:46:37;;;;;;;17.05;2.08;;;7.60;99.90;;;;;;4948100;29;20126;-81
2021/12/05 19:49:05;;;;;;;13.77;2.38;;;7.60;99.90;;;;;;4942516;29;20055;-82
2021/12/05 19:51:35;;;;;;;18.48;2.10;;;7.60;99.90;;;;;;4917693;29;20062;-82
2021/12/05 19:54:07;;;;;;;10.88;1.65;;;7.60;99.90;;;;;;4939749;29;20517;-80
2021/12/05 19:56:35;;;;;;;14.00;1.60;;;7.60;99.90;;;;;;4939141;29;20044;-81
2021/12/05 19:59:03;;;;;;;16.35;2.35;;;7.60;99.90;;;;;;4937902;29;20134;-81
2021/12/05 20:01:30;;;;;;;10.67;2.43;;;7.60;99.90;;;;;;4939867;28;20066;-82
2021/12/05 20:03:59;;;;;;;15.25;2.25;;;7.60;99.90;;;;;;4940943;29;20051;-82
2021/12/05 20:06:27;;;;;;;8.70;2.00;;;7.50;99.90;;;;;;4922543;29;20503;-80
2021/12/05 20:08:54;;;;;;;13.68;1.83;;;7.50;99.90;;;;;;4922274;29;20051;-82
2021/12/05 20:11:21;;;;;;;11.93;1.88;;;7.50;99.90;;;;;;4937007;29;20069;-81
2021/12/05 20:13:52;;;;;;;11.30;2.50;;;7.40;99.90;;;;;;4931096;29;20130;-82
2021/12/05 20:16:20;;;;;;;14.13;2.40;;;7.40;99.90;;;;;;4943880;29;20092;-80
2021/12/05 20:18:47;;;;;;;13.63;2.10;;;7.40;99.90;;;;;;4946658;28;20039;-81
2021/12/05 20:21:14;;;;;;;10.90;1.88;;;7.40;99.90;;;;;;4943436;29;20047;-82
2021/12/05 20:23:42;;;;;;;11.82;1.77;;;7.40;99.90;;;;;;4947571;29;20091;-80
2021/12/05 20:26:12;;;;;;;10.40;1.48;;;7.40;99.90;;;;;;4941650;29;20062;-79
2021/12/05 20:28:40;;;;;;;13.65;1.88;;;7.40;99.90;;;;;;4927128;29;20126;-78
2021/12/05 20:31:07;;;;;;;9.23;1.58;;;7.40;99.90;;;;;;4941443;29;20047;-79
2021/12/05 20:33:35;;;;;;;13.30;2.22;;;7.40;99.90;;;;;;4943669;29;20508;-79
2021/12/05 20:36:05;;;;;;;7.07;1.60;;;7.40;99.90;;;;;;4937762;29;20063;-79
2021/12/05 20:38:32;;;;;;;14.20;1.63;;;7.40;99.90;;;;;;4923269;29;20069;-80
2021/12/05 20:40:59;;;;;;;15.23;2.10;;;7.40;99.90;;;;;;4935987;29;20157;-81
2021/12/05 20:43:27;;;;;;;12.38;2.20;;;7.40;99.90;;;;;;4939012;29;20047;-79
2021/12/05 20:45:54;;;;;;;11.63;2.00;;;7.40;99.90;;;;;;4942030;29;20528;-79
2021/12/05 20:48:23;;;;;;;15.57;2.03;;;7.30;99.90;;;;;;4942785;29;20245;-79
2021/12/05 20:50:50;;;;;;;15.60;2.20;;;7.30;99.90;;;;;;4934981;29;20122;-79
2021/12/05 20:53:19;;;;;;;15.07;1.83;;;7.30;99.90;;;;;;4935220;28;20054;-79
2021/12/05 20:55:47;;;;;;;;;;;7.30;99.90;;;;;;4917813;29;20409;-78
2021/12/05 20:58:14;;;;;;;12.27;1.73;;;7.20;99.90;;;;;;4935345;29;19954;-78
2021/12/05 21:00:45;;;;;;;11.80;1.95;;;7.20;99.90;;;;;;4938706;29;20048;-81
2021/12/05 21:03:12;;;;;;;15.00;2.00;;;7.30;99.90;;;;;;4939756;28;20528;-80
2021/12/05 21:05:43;;;;;;;13.23;1.67;;;7.20;99.90;;;;;;4937679;29;20047;-81
2021/12/05 21:08:10;;;;;;;14.93;1.50;;;7.20;99.90;;;;;;4940123;29;20412;-80
2021/12/05 21:10:51;;;;;;;21.33;2.33;;;7.20;99.90;;;;;;4937612;29;20047;-79
2021/12/05 21:13:19;;;;;;;14.15;1.80;;;7.20;99.90;;;;;;4934447;29;20055;-79
2021/12/05 21:16:11;;;;;;;19.67;2.97;;;7.20;99.90;;;;;;4945076;29;20045;-79
2021/12/05 21:18:43;;;;;;;9.50;1.77;;;7.20;99.90;;;;;;4939766;29;20051;-80
2021/12/05 21:21:14;;;;;;;9.43;2.35;;;7.10;99.90;;;;;;4940305;29;20083;-81
2021/12/05 21:23:41;;;;;;;10.95;1.75;;;7.10;99.90;;;;;;4939306;29;20054;-80
2021/12/05 21:26:08;;;;;;;17.73;2.38;;;7.10;99.90;;;;;;4936180;29;20047;-79
2021/12/05 21:28:36;;;;;;;13.93;2.90;;;7.10;99.90;;;;;;4939250;29;20099;-80
2021/12/05 21:31:06;;;;;;;11.32;1.88;;;7.10;99.90;;;;;;4938507;28;20058;-81
2021/12/05 21:33:57;;;;;;;11.43;1.80;;;7.10;99.90;;;;;;4925905;29;20053;-80
2021/12/05 21:36:25;;;;;;;12.80;1.83;;;7.10;99.90;;;;;;4939788;29;20494;-81
2021/12/05 21:38:52;;;;;;;22.95;1.92;;;7.10;99.90;;;;;;4932467;29;20583;-81
2021/12/05 21:41:21;;;;;;;11.32;1.60;;;7.00;99.90;;;;;;4946923;29;20043;-81
2021/12/05 21:43:51;;;;;;;10.73;1.85;;;7.00;99.90;;;;;;4929262;29;20095;-80
2021/12/05 21:46:19;;;;;;;17.17;2.70;;;7.00;99.90;;;;;;4942274;29;20058;-82
2021/12/05 21:48:47;;;;;;;21.13;1.92;;;7.00;99.90;;;;;;4943744;29;20047;-81
2021/12/05 21:51:16;;;;;;;12.43;1.67;;;7.00;99.90;;;;;;4943792;29;20100;-82
2021/12/05 21:53:46;;;;;;;17.65;2.20;;;7.00;99.90;;;;;;4939018;29;20099;-81
2021/12/05 21:56:14;;;;;;;16.10;2.13;;;7.00;99.90;;;;;;4939042;29;20443;-81
2021/12/05 21:58:43;;;;;;;14.18;1.80;;;7.00;99.90;;;;;;4925895;29;20058;-80
2021/12/05 22:01:09;;;;;;;20.75;2.78;;;7.00;99.90;;;;;;4949061;28;20059;-81
2021/12/05 22:03:39;;;;;;;16.52;2.40;;;6.90;99.90;;;;;;4943250;28;20074;-81
2021/12/05 22:06:09;;;;;;;10.02;2.22;;;6.90;99.90;;;;;;4943835;28;20494;-82
2021/12/05 22:08:37;;;;;;;11.70;1.63;;;6.90;99.90;;;;;;4945309;28;20053;-80
2021/12/05 22:11:05;;;;;;;12.55;2.17;;;6.90;99.90;;;;;;4963149;28;20538;-81
2021/12/05 22:13:33;;;;;;;9.68;1.95;;;6.90;99.90;;;;;;4954211;28;20055;-81
2021/12/05 22:16:02;;;;;;;9.73;1.98;;;6.90;99.90;;;;;;4936074;29;20062;-82
2021/12/05 22:18:30;;;;;;;11.55;2.00;;;6.90;99.90;;;;;;4963828;28;20094;-82
2021/12/05 22:21:06;;;;;;;11.05;1.70;;;6.80;99.90;;;;;;4964668;28;20055;-82
2021/12/05 22:23:39;;;;;;;7.65;1.35;;;6.90;99.90;;;;;;4956453;28;20035;-82
2021/12/05 22:26:07;;;;;;;14.85;1.83;;;6.90;99.90;;;;;;4967040;28;20057;-80
2021/12/05 22:28:35;;;;;;;13.10;1.60;;;6.90;99.90;;;;;;4969129;28;22734;-82
2021/12/05 22:31:03;;;;;;;11.00;2.13;;;6.90;99.90;;;;;;4949513;28;20106;-82
2021/12/05 22:33:31;;;;;;;11.13;1.77;;;6.90;99.90;;;;;;4959820;28;20460;-83
2021/12/05 22:35:59;;;;;;;7.80;1.40;;;6.90;99.90;;;;;;4960737;28;20377;-82
2021/12/05 22:38:27;;;;;;;10.93;1.88;;;6.90;99.90;;;;;;4946063;28;20047;-82
2021/12/05 22:40:54;;;;;;;11.53;1.60;;;6.90;99.90;;;;;;4969974;28;20050;-82
2021/12/05 22:43:22;;;;;;;10.65;1.45;;;6.90;99.90;;;;;;4953039;28;20098;-82
2021/12/05 22:45:54;;;;;;;12.32;2.08;;;6.90;99.90;;;;;;4941516;29;20621;-82
2021/12/05 22:48:21;;;;;;;12.50;2.00;;;6.90;99.90;;;;;;4967379;28;20047;-82
2021/12/05 22:50:48;;;;;;;11.35;1.58;;;6.90;99.90;;;;;;4970029;28;20046;-82
2021/12/05 22:53:17;;;;;;;15.43;1.98;;;6.80;99.90;;;;;;4961684;28;20464;-82
2021/12/05 22:55:44;;;;;;;10.07;1.42;;;6.80;99.90;;;;;;4955079;28;20047;-82
2021/12/05 22:58:11;;;;;;;7.05;1.20;;;6.90;99.90;;;;;;4970463;28;20054;-82
